createdAt,value
2018-04-10T00:14:34.573Z,10.90
2018-04-10T00:35:09.847Z,10.50
2018-04-10T00:55:46.038Z,12.27
2018-04-10T01:16:18.239Z,10.73
2018-04-10T01:36:50.440Z,13.90
2018-04-10T01:57:22.634Z,17.10
2018-04-10T02:17:57.911Z,18.73
2018-04-10T02:38:43.451Z,8.37
2018-04-10T02:59:14.292Z,12.27
2018-04-10T03:19:47.853Z,14.77
2018-04-10T03:40:19.920Z,8.70
2018-04-10T04:00:56.113Z,8.10
2018-04-10T04:21:46.435Z,12.13
2018-04-10T04:42:23.251Z,10.47
2018-04-10T05:02:57.900Z,14.30
2018-04-10T05:23:33.370Z,14.30
2018-04-10T05:44:05.378Z,11.47
2018-04-10T06:04:37.574Z,16.67
2018-04-10T06:25:11.995Z,17.37
2018-04-10T06:45:47.195Z,10.77
2018-04-10T07:06:19.089Z,12.60
2018-04-10T07:26:53.438Z,14.00
2018-04-10T07:47:26.561Z,11.40
2018-04-10T08:08:04.148Z,8.40
2018-04-10T08:28:38.366Z,9.50
2018-04-10T08:49:12.386Z,8.47
2018-04-10T09:09:45.497Z,24.03
2018-04-10T09:30:20.768Z,5.70
2018-04-10T09:50:53.226Z,5.20
2018-04-10T10:11:26.096Z,1.33
2018-04-10T10:32:00.449Z,1.83
2018-04-10T10:52:33.568Z,5.40
2018-04-10T11:13:10.688Z,3.10
2018-04-10T11:33:47.186Z,3.73
2018-04-10T11:54:21.579Z,3.43
2018-04-10T12:14:54.662Z,7.13
2018-04-10T12:35:29.627Z,3.40
2018-04-10T12:56:06.253Z,4.13
2018-04-10T13:16:42.319Z,2.90
2018-04-10T13:37:17.725Z,3.30
2018-04-10T13:57:54.036Z,4.50
2018-04-10T14:18:26.910Z,3.40
2018-04-10T14:39:00.387Z,6.20
2018-04-10T14:59:32.587Z,4.27
2018-04-10T15:20:06.588Z,7.50
2018-04-10T15:40:40.629Z,3.47
2018-04-10T16:01:16.434Z,3.00
2018-04-10T16:21:50.477Z,1.73
2018-04-10T16:42:23.064Z,2.40
2018-04-10T17:02:57.902Z,2.10
2018-04-10T17:23:32.126Z,2.63
2018-04-10T17:44:04.533Z,3.10
2018-04-10T18:04:35.241Z,1.57
2018-04-10T18:25:10.517Z,1.13
2018-04-10T18:45:42.715Z,1.13
2018-04-10T19:06:14.131Z,4.57
2018-04-10T19:26:46.337Z,8.53
2018-04-10T19:47:20.240Z,2.50
2018-04-10T20:07:51.520Z,2.60
2018-04-10T20:28:26.795Z,1.93
2018-04-10T20:48:58.992Z,3.47
2018-04-10T21:09:31.378Z,2.23
2018-04-10T21:30:04.325Z,2.13
2018-04-10T21:50:39.585Z,2.00
2018-04-10T22:11:11.788Z,5.00
2018-04-10T22:31:44.906Z,4.43
2018-04-10T22:52:19.229Z,5.93
2018-04-10T23:12:58.514Z,1.50
2018-04-10T23:33:30.928Z,3.67
2018-04-10T23:48:09.834Z,3.33
2018-04-10T23:50:38.861Z,4.80
2018-04-10T23:53:07.141Z,20.33
2018-04-10T23:55:35.432Z,4.73
2018-04-10T23:58:03.694Z,5.10
